createdAt,value
2022-12-16T00:01:16.334Z,85.15
2022-12-16T00:03:48.156Z,85.18
2022-12-16T00:06:14.977Z,85.11
2022-12-16T00:08:41.437Z,85.05
2022-12-16T00:11:08.231Z,85.20
2022-12-16T00:13:36.490Z,84.65
2022-12-16T00:16:11.370Z,84.73
2022-12-16T00:18:37.832Z,84.73
2022-12-16T00:21:05.099Z,84.42
2022-12-16T00:23:33.086Z,84.71
2022-12-16T00:25:59.939Z,85.02
2022-12-16T00:28:26.881Z,84.61
2022-12-16T00:30:55.133Z,84.92
2022-12-16T00:33:24.087Z,84.42
2022-12-16T00:35:51.465Z,84.73
2022-12-16T00:38:18.602Z,84.48
2022-12-16T00:40:45.182Z,84.75
2022-12-16T00:43:11.759Z,84.73
2022-12-16T00:45:39.383Z,84.73
2022-12-16T00:48:06.581Z,84.26
2022-12-16T00:50:33.514Z,84.07
2022-12-16T00:53:00.393Z,84.39
2022-12-16T00:55:27.265Z,84.41
2022-12-16T00:57:53.656Z,84.67
2022-12-16T01:00:22.522Z,84.61
2022-12-16T01:02:50.789Z,84.28
2022-12-16T01:05:20.759Z,83.95
2022-12-16T01:07:48.477Z,84.04
2022-12-16T01:10:15.205Z,84.30
2022-12-16T01:12:41.685Z,84.09
2022-12-16T01:15:09.389Z,84.22
2022-12-16T01:17:36.039Z,84.34
2022-12-16T01:20:02.901Z,84.78
2022-12-16T01:22:33.536Z,84.36
2022-12-16T01:25:01.136Z,84.30
2022-12-16T01:27:28.836Z,84.07
2022-12-16T01:29:55.492Z,84.92
2022-12-16T01:32:22.947Z,84.95
2022-12-16T01:34:55.408Z,84.43
2022-12-16T01:37:23.523Z,83.95
2022-12-16T01:39:50.777Z,84.00
2022-12-16T01:42:22.344Z,84.23
2022-12-16T01:44:52.105Z,84.38
2022-12-16T01:47:30.512Z,83.75
2022-12-16T01:50:04.118Z,83.48
2022-12-16T01:52:36.864Z,84.01
2022-12-16T01:57:58.825Z,84.52
2022-12-16T02:00:25.425Z,84.15
2022-12-16T02:02:53.396Z,83.87
2022-12-16T02:05:22.819Z,84.17
2022-12-16T02:08:16.542Z,84.17
2022-12-16T02:13:52.669Z,84.34
2022-12-16T02:16:21.927Z,85.01
2022-12-16T02:19:02.615Z,84.58
2022-12-16T02:21:46.303Z,84.40
2022-12-16T02:24:40.603Z,83.94
2022-12-16T02:30:06.543Z,84.07
2022-12-16T02:32:56.944Z,84.86
2022-12-16T02:35:55.433Z,84.24
2022-12-16T02:38:30.902Z,84.66
2022-12-16T02:41:06.730Z,84.30
2022-12-16T02:46:55.786Z,84.71
2022-12-16T02:49:22.265Z,84.55
2022-12-16T02:51:49.701Z,84.29
2022-12-16T02:54:17.703Z,84.19
2022-12-16T02:57:02.184Z,84.08
2022-12-16T02:59:51.959Z,84.05
2022-12-16T03:02:36.776Z,83.66
2022-12-16T03:05:12.358Z,83.88
2022-12-16T03:07:41.401Z,83.72
2022-12-16T03:10:11.819Z,84.16
2022-12-16T03:12:41.988Z,83.88
2022-12-16T03:15:10.175Z,83.76
2022-12-16T03:20:28.215Z,83.59
2022-12-16T03:22:59.213Z,83.84
2022-12-16T03:25:27.931Z,83.67
2022-12-16T03:28:15.739Z,83.44
2022-12-16T03:30:47.889Z,83.75
2022-12-16T03:33:28.357Z,83.45
2022-12-16T03:36:05.096Z,83.63
2022-12-16T03:38:33.894Z,83.96
2022-12-16T03:41:02.693Z,84.32
2022-12-16T03:43:30.244Z,84.15
2022-12-16T03:46:03.672Z,84.32
2022-12-16T03:48:31.005Z,84.79
2022-12-16T03:53:41.707Z,84.55
2022-12-16T03:56:08.671Z,84.38
2022-12-16T03:58:39.900Z,84.31
2022-12-16T04:01:10.490Z,84.73
2022-12-16T04:03:37.971Z,83.98
2022-12-16T04:06:05.169Z,84.07
2022-12-16T04:11:34.191Z,84.13
2022-12-16T04:14:19.298Z,83.81
2022-12-16T04:17:04.419Z,83.84
2022-12-16T04:19:53.606Z,83.79
2022-12-16T04:22:44.860Z,83.50
2022-12-16T04:28:00.569Z,83.58
2022-12-16T04:30:28.754Z,83.58
2022-12-16T04:33:17.881Z,83.69
2022-12-16T04:36:03.249Z,83.43
2022-12-16T04:38:48.940Z,84.07
2022-12-16T04:44:36.686Z,83.56
2022-12-16T04:47:21.376Z,83.51
2022-12-16T04:50:06.096Z,83.24
2022-12-16T04:52:50.767Z,83.14
2022-12-16T04:55:36.096Z,83.23
2022-12-16T05:01:24.770Z,82.84
2022-12-16T05:04:09.881Z,82.93
2022-12-16T05:06:54.680Z,83.20
2022-12-16T05:09:39.531Z,83.09
2022-12-16T05:12:24.412Z,82.92
2022-12-16T05:15:09.313Z,82.97
2022-12-16T05:17:54.426Z,82.92
2022-12-16T05:20:39.265Z,82.85
2022-12-16T05:23:24.255Z,82.71
2022-12-16T05:26:08.928Z,82.62
2022-12-16T05:28:54.145Z,82.84
2022-12-16T05:34:42.021Z,82.73
2022-12-16T05:37:27.130Z,82.69
2022-12-16T05:40:11.902Z,82.35
2022-12-16T05:42:56.873Z,82.32
2022-12-16T05:45:41.780Z,82.23
2022-12-16T05:48:26.575Z,82.02
2022-12-16T05:51:11.502Z,82.26
2022-12-16T05:53:56.238Z,82.07
2022-12-16T05:56:41.002Z,82.17
2022-12-16T05:59:25.765Z,82.29
2022-12-16T06:02:11.043Z,82.17
2022-12-16T06:04:55.954Z,82.57
2022-12-16T06:07:41.155Z,82.28
2022-12-16T06:10:26.527Z,82.58
2022-12-16T06:13:11.707Z,82.58
2022-12-16T06:15:56.777Z,82.54
2022-12-16T06:18:42.036Z,83.55
2022-12-16T06:21:26.911Z,84.84
2022-12-16T06:24:12.291Z,84.09
2022-12-16T06:26:57.516Z,83.46
2022-12-16T06:29:42.245Z,83.22
2022-12-16T06:32:31.581Z,83.26
2022-12-16T06:35:16.518Z,83.22
2022-12-16T06:38:01.478Z,83.05
2022-12-16T06:40:46.400Z,83.35
2022-12-16T06:43:31.525Z,82.91
2022-12-16T06:46:16.626Z,83.08
2022-12-16T06:49:01.399Z,83.51
2022-12-16T06:51:46.119Z,83.37
2022-12-16T06:54:31.075Z,84.03
2022-12-16T06:57:16.026Z,83.47
2022-12-16T07:00:01.402Z,83.55
2022-12-16T07:02:46.411Z,84.01
2022-12-16T07:05:31.182Z,84.09
2022-12-16T07:08:15.919Z,84.42
2022-12-16T07:11:15.279Z,84.24
2022-12-16T07:14:01.090Z,84.27
2022-12-16T07:16:46.075Z,84.40
2022-12-16T07:19:31.062Z,84.15
2022-12-16T07:22:16.024Z,84.86
2022-12-16T07:25:00.946Z,85.02
2022-12-16T07:27:45.652Z,85.30
2022-12-16T07:30:30.952Z,85.69
2022-12-16T07:33:15.767Z,86.33
2022-12-16T07:36:02.088Z,86.62
2022-12-16T07:38:47.046Z,86.99
2022-12-16T07:41:31.704Z,87.12
2022-12-16T07:44:16.898Z,88.41
2022-12-16T07:47:01.719Z,88.35
2022-12-16T07:49:46.709Z,88.78
2022-12-16T07:52:31.567Z,89.25
2022-12-16T07:55:16.467Z,89.18
2022-12-16T07:58:08.527Z,89.33
2022-12-16T08:00:54.001Z,89.89
2022-12-16T08:03:41.100Z,90.00
2022-12-16T08:06:26.300Z,90.35
2022-12-16T08:09:11.045Z,90.05
2022-12-16T08:11:55.853Z,89.46
2022-12-16T08:14:40.730Z,89.62
2022-12-16T08:17:33.611Z,89.32
2022-12-16T08:20:18.389Z,88.79
2022-12-16T08:23:03.392Z,88.80
2022-12-16T08:25:48.189Z,88.76
2022-12-16T08:28:33.165Z,88.68
2022-12-16T08:31:17.903Z,87.88
2022-12-16T08:34:02.725Z,88.43
2022-12-16T08:36:47.527Z,88.05
2022-12-16T08:39:32.236Z,87.63
2022-12-16T08:42:16.993Z,87.18
2022-12-16T08:45:01.797Z,87.34
2022-12-16T08:47:51.107Z,87.12
2022-12-16T08:50:35.788Z,86.87
2022-12-16T08:53:20.641Z,87.01
2022-12-16T08:56:05.458Z,86.47
2022-12-16T08:58:50.196Z,86.05
2022-12-16T09:01:36.252Z,86.34
2022-12-16T09:04:20.939Z,86.49
2022-12-16T09:07:06.076Z,85.92
2022-12-16T09:09:50.757Z,86.41
2022-12-16T09:12:35.698Z,85.58
2022-12-16T09:15:40.394Z,85.29
2022-12-16T09:18:25.476Z,85.39
2022-12-16T09:21:10.897Z,85.38
2022-12-16T09:23:56.162Z,85.02
2022-12-16T09:26:41.466Z,85.15
2022-12-16T09:29:26.369Z,84.90
2022-12-16T09:32:11.303Z,85.23
2022-12-16T09:34:56.365Z,84.62
2022-12-16T09:37:41.211Z,84.91
2022-12-16T09:40:31.733Z,84.30
2022-12-16T09:43:31.927Z,84.54
2022-12-16T09:46:28.752Z,84.83
2022-12-16T09:49:43.524Z,85.46
2022-12-16T09:52:36.893Z,88.10
2022-12-16T09:55:34.224Z,86.50
2022-12-16T09:58:20.047Z,85.32
2022-12-16T10:01:05.389Z,85.25
2022-12-16T10:03:58.179Z,85.31
2022-12-16T10:06:54.453Z,84.93
2022-12-16T10:09:53.246Z,85.05
2022-12-16T10:13:04.963Z,85.49
2022-12-16T10:16:00.083Z,85.19
2022-12-16T10:19:06.014Z,85.23
2022-12-16T10:22:15.158Z,85.26
2022-12-16T10:25:08.529Z,85.43
2022-12-16T10:28:02.964Z,85.36
2022-12-16T10:30:49.266Z,85.11
2022-12-16T10:33:36.736Z,85.26
2022-12-16T10:36:21.968Z,84.89
2022-12-16T10:39:19.641Z,84.69
2022-12-16T10:42:10.210Z,84.27
2022-12-16T10:45:13.965Z,84.53
2022-12-16T10:47:58.707Z,84.38
2022-12-16T10:50:43.617Z,84.62
2022-12-16T10:53:32.901Z,84.59
2022-12-16T10:56:43.608Z,85.25
2022-12-16T10:59:28.844Z,85.46
2022-12-16T11:02:23.976Z,85.20
2022-12-16T11:05:09.250Z,84.86
2022-12-16T11:08:10.924Z,84.86
2022-12-16T11:10:58.898Z,84.92
2022-12-16T11:13:52.781Z,84.44
2022-12-16T11:16:40.835Z,84.34
2022-12-16T11:19:43.999Z,84.67
2022-12-16T11:22:38.587Z,84.90
2022-12-16T11:25:31.767Z,84.79
2022-12-16T11:28:22.728Z,84.46
2022-12-16T11:31:17.731Z,84.18
2022-12-16T11:34:03.871Z,83.86
2022-12-16T11:36:51.195Z,84.09
2022-12-16T11:39:40.258Z,83.81
2022-12-16T11:42:30.426Z,84.60
2022-12-16T11:45:19.319Z,84.91
2022-12-16T11:48:08.040Z,84.28
2022-12-16T11:50:57.951Z,84.39
2022-12-16T11:54:03.059Z,84.43
2022-12-16T11:56:58.748Z,84.68
2022-12-16T11:59:58.243Z,84.39
2022-12-16T12:02:54.925Z,84.32
2022-12-16T12:05:49.455Z,84.32
2022-12-16T12:09:13.031Z,84.50
2022-12-16T12:12:08.378Z,84.50
2022-12-16T12:15:20.667Z,84.74
2022-12-16T12:18:35.660Z,84.56
2022-12-16T12:21:37.677Z,84.47
2022-12-16T12:24:57.774Z,84.55
2022-12-16T12:27:52.392Z,84.15
2022-12-16T12:30:39.387Z,83.77
2022-12-16T12:33:52.674Z,84.11
2022-12-16T12:36:38.471Z,83.74
2022-12-16T12:39:47.844Z,83.77
2022-12-16T12:42:56.180Z,83.31
2022-12-16T12:46:09.513Z,83.34
2022-12-16T12:49:22.394Z,82.99
2022-12-16T12:52:22.249Z,83.20
2022-12-16T12:55:19.648Z,82.85
2022-12-16T12:58:06.916Z,82.90
2022-12-16T13:00:57.461Z,82.50
2022-12-16T13:04:04.286Z,82.62
2022-12-16T13:06:50.522Z,81.96
2022-12-16T13:09:43.903Z,81.64
2022-12-16T13:12:28.603Z,81.81
2022-12-16T13:15:29.386Z,81.79
2022-12-16T13:18:20.329Z,81.77
2022-12-16T13:21:15.044Z,81.26
2022-12-16T13:24:01.807Z,80.91
2022-12-16T13:26:50.071Z,80.61
2022-12-16T13:29:34.803Z,81.70
2022-12-16T13:32:23.024Z,81.42
2022-12-16T13:35:34.379Z,81.33
2022-12-16T13:38:23.657Z,81.67
2022-12-16T13:41:15.928Z,81.95
2022-12-16T13:44:17.491Z,81.50
2022-12-16T13:47:10.280Z,81.79
2022-12-16T13:49:55.070Z,81.62
2022-12-16T13:52:58.859Z,81.17
2022-12-16T13:56:01.389Z,81.43
2022-12-16T13:59:09.269Z,81.35
2022-12-16T14:02:05.775Z,81.16
2022-12-16T14:04:58.439Z,80.97
2022-12-16T14:07:45.075Z,80.29
2022-12-16T14:10:49.597Z,80.16
2022-12-16T14:14:00.051Z,79.69
2022-12-16T14:17:33.456Z,79.35
2022-12-16T14:20:42.904Z,79.17
2022-12-16T14:23:58.056Z,79.14
2022-12-16T14:26:44.862Z,79.18
2022-12-16T14:29:44.043Z,80.15
2022-12-16T14:32:41.974Z,80.51
2022-12-16T14:35:37.957Z,80.70
2022-12-16T14:38:49.157Z,80.83
2022-12-16T14:41:38.885Z,81.15
2022-12-16T14:44:34.035Z,81.36
2022-12-16T14:47:19.959Z,81.94
2022-12-16T14:50:10.616Z,82.06
2022-12-16T14:52:56.012Z,82.44
2022-12-16T14:55:53.068Z,82.77
2022-12-16T14:58:40.884Z,83.32
2022-12-16T15:01:39.996Z,84.07
2022-12-16T15:04:39.589Z,84.59
2022-12-16T15:07:31.631Z,84.79
2022-12-16T15:10:18.408Z,85.55
2022-12-16T15:13:05.698Z,85.31
2022-12-16T15:15:53.215Z,85.62
2022-12-16T15:18:42.163Z,85.55
2022-12-16T15:21:27.467Z,86.50
2022-12-16T15:24:12.787Z,86.81
2022-12-16T15:26:57.835Z,87.58
2022-12-16T15:29:52.858Z,87.52
2022-12-16T15:32:44.035Z,87.72
2022-12-16T15:35:30.227Z,87.33
2022-12-16T15:38:32.085Z,87.43
2022-12-16T15:41:17.286Z,88.14
2022-12-16T15:44:04.775Z,88.62
2022-12-16T15:46:51.338Z,89.14
2022-12-16T15:49:59.204Z,90.07
2022-12-16T15:52:56.047Z,90.43
2022-12-16T15:55:55.994Z,91.31
2022-12-16T15:58:47.099Z,91.97
2022-12-16T16:01:38.993Z,91.71
2022-12-16T16:04:37.806Z,92.50
2022-12-16T16:07:22.767Z,92.64
2022-12-16T16:10:07.633Z,93.05
2022-12-16T16:12:52.885Z,93.36
2022-12-16T16:15:37.909Z,93.23
2022-12-16T16:18:24.873Z,93.70
2022-12-16T16:21:10.246Z,94.45
2022-12-16T16:23:55.044Z,94.85
2022-12-16T16:26:44.904Z,95.37
2022-12-16T16:29:30.364Z,95.53
2022-12-16T16:32:15.384Z,95.44
2022-12-16T16:35:01.018Z,95.77
2022-12-16T16:37:45.871Z,96.01
2022-12-16T16:40:47.189Z,96.25
2022-12-16T16:43:32.432Z,96.80
2022-12-16T16:46:18.077Z,96.75
2022-12-16T16:49:02.878Z,96.93
2022-12-16T16:51:48.210Z,97.44
2022-12-16T16:54:33.494Z,97.34
2022-12-16T16:57:20.222Z,97.36
2022-12-16T17:00:05.165Z,97.64
2022-12-16T17:02:50.361Z,97.29
2022-12-16T17:05:35.492Z,97.79
2022-12-16T17:08:20.352Z,97.87
2022-12-16T17:11:05.479Z,98.02
2022-12-16T17:13:50.523Z,98.27
2022-12-16T17:16:35.674Z,99.04
2022-12-16T17:19:22.067Z,99.44
2022-12-16T17:22:06.875Z,99.30
2022-12-16T17:24:54.303Z,99.74
2022-12-16T17:27:43.739Z,99.74
2022-12-16T17:30:44.936Z,100.00
2022-12-16T17:33:33.222Z,100.00
2022-12-16T17:36:18.451Z,100.00
2022-12-16T17:39:03.836Z,100.00
2022-12-16T17:41:51.064Z,100.00
2022-12-16T17:44:36.599Z,100.00
2022-12-16T17:47:22.427Z,100.00
2022-12-16T17:50:07.284Z,100.00
2022-12-16T17:52:51.952Z,100.00
2022-12-16T17:55:36.991Z,100.00
2022-12-16T17:58:22.626Z,100.00
2022-12-16T18:01:07.422Z,100.00
2022-12-16T18:03:52.286Z,100.00
2022-12-16T18:06:38.589Z,100.00
2022-12-16T18:09:23.307Z,100.00
2022-12-16T18:12:08.488Z,100.00
2022-12-16T18:14:53.197Z,100.00
2022-12-16T18:17:38.540Z,100.00
2022-12-16T18:20:23.951Z,100.00
2022-12-16T18:23:11.953Z,100.00
2022-12-16T18:25:57.137Z,100.00
2022-12-16T18:28:43.006Z,100.00
2022-12-16T18:31:28.390Z,100.00
2022-12-16T18:34:13.350Z,100.00
2022-12-16T18:36:58.055Z,100.00
2022-12-16T18:39:43.039Z,100.00
2022-12-16T18:42:28.956Z,100.00
2022-12-16T18:45:13.891Z,100.00
2022-12-16T18:47:58.511Z,100.00
2022-12-16T18:50:43.329Z,100.00
2022-12-16T18:53:28.188Z,100.00
2022-12-16T18:56:25.399Z,100.00
2022-12-16T18:59:10.701Z,100.00
2022-12-16T19:01:56.077Z,100.00
2022-12-16T19:04:41.365Z,100.00
2022-12-16T19:07:26.255Z,100.00
2022-12-16T19:10:10.968Z,100.00
2022-12-16T19:12:56.043Z,100.00
2022-12-16T19:15:41.623Z,100.00
2022-12-16T19:18:26.948Z,100.00
2022-12-16T19:21:15.391Z,100.00
2022-12-16T19:24:00.785Z,100.00
2022-12-16T19:26:46.178Z,100.00
2022-12-16T19:29:30.982Z,100.00
2022-12-16T19:32:15.887Z,100.00
2022-12-16T19:35:00.830Z,100.00
2022-12-16T19:37:45.623Z,100.00
2022-12-16T19:40:30.357Z,100.00
2022-12-16T19:43:15.264Z,100.00
2022-12-16T19:46:00.077Z,100.00
2022-12-16T19:48:44.965Z,100.00
2022-12-16T19:51:29.768Z,100.00
2022-12-16T19:54:14.574Z,100.00
2022-12-16T19:56:59.259Z,100.00
2022-12-16T19:59:44.143Z,100.00
2022-12-16T20:02:30.607Z,100.00
2022-12-16T20:05:15.964Z,100.00
2022-12-16T20:08:00.701Z,100.00
2022-12-16T20:10:45.555Z,100.00
2022-12-16T20:13:31.443Z,100.00
2022-12-16T20:16:24.429Z,100.00
2022-12-16T20:19:09.815Z,100.00
2022-12-16T20:21:55.103Z,100.00
2022-12-16T20:24:41.900Z,100.00
2022-12-16T20:27:27.025Z,100.00
2022-12-16T20:30:11.892Z,100.00
2022-12-16T20:32:57.307Z,100.00
2022-12-16T20:35:42.137Z,100.00
2022-12-16T20:38:27.637Z,100.00
2022-12-16T20:41:20.684Z,100.00
2022-12-16T20:44:06.364Z,100.00
2022-12-16T20:46:56.260Z,100.00
2022-12-16T20:50:00.372Z,100.00
2022-12-16T20:52:45.545Z,100.00
2022-12-16T20:55:30.952Z,100.00
2022-12-16T20:58:15.847Z,100.00
2022-12-16T21:01:01.054Z,100.00
2022-12-16T21:03:46.193Z,100.00
2022-12-16T21:06:31.161Z,100.00
2022-12-16T21:09:16.725Z,100.00
2022-12-16T21:12:01.608Z,100.00
2022-12-16T21:14:46.714Z,100.00
2022-12-16T21:17:31.868Z,100.00
2022-12-16T21:20:16.491Z,100.00
2022-12-16T21:23:01.545Z,100.00
2022-12-16T21:25:46.491Z,100.00
2022-12-16T21:28:31.466Z,100.00
2022-12-16T21:31:18.984Z,100.00
2022-12-16T21:34:04.176Z,100.00
2022-12-16T21:36:49.240Z,100.00
2022-12-16T21:39:33.964Z,100.00
2022-12-16T21:42:18.823Z,100.00
2022-12-16T21:45:03.625Z,100.00
2022-12-16T21:47:48.437Z,100.00
2022-12-16T21:50:33.297Z,100.00
2022-12-16T21:53:18.250Z,100.00
2022-12-16T21:56:10.143Z,100.00
2022-12-16T21:58:55.178Z,100.00
2022-12-16T22:01:40.538Z,100.00
2022-12-16T22:04:25.954Z,100.00
2022-12-16T22:07:10.928Z,100.00
2022-12-16T22:09:56.323Z,100.00
2022-12-16T22:12:41.852Z,100.00
2022-12-16T22:15:27.698Z,100.00
2022-12-16T22:18:12.703Z,100.00
2022-12-16T22:20:57.786Z,100.00
2022-12-16T22:23:49.612Z,100.00
2022-12-16T22:26:34.613Z,100.00
2022-12-16T22:29:19.573Z,100.00
2022-12-16T22:32:04.396Z,100.00
2022-12-16T22:34:49.537Z,100.00
2022-12-16T22:37:51.119Z,100.00
2022-12-16T22:40:37.314Z,100.00
2022-12-16T22:43:22.570Z,100.00
2022-12-16T22:46:16.693Z,100.00
2022-12-16T22:49:01.574Z,100.00
2022-12-16T22:51:46.737Z,100.00
2022-12-16T22:54:48.160Z,100.00
2022-12-16T22:57:40.654Z,100.00
2022-12-16T23:00:26.462Z,100.00
2022-12-16T23:03:11.579Z,100.00
2022-12-16T23:05:56.572Z,100.00
2022-12-16T23:08:41.584Z,100.00
2022-12-16T23:11:37.178Z,100.00
2022-12-16T23:14:22.458Z,100.00
2022-12-16T23:17:07.300Z,100.00
2022-12-16T23:19:52.132Z,100.00
2022-12-16T23:22:37.143Z,100.00
2022-12-16T23:25:22.436Z,100.00
2022-12-16T23:28:07.128Z,100.00
2022-12-16T23:30:55.068Z,100.00
2022-12-16T23:33:41.855Z,100.00
2022-12-16T23:36:27.158Z,100.00
2022-12-16T23:39:12.353Z,100.00
2022-12-16T23:41:57.097Z,100.00
2022-12-16T23:44:42.592Z,100.00
2022-12-16T23:47:27.558Z,100.00
2022-12-16T23:50:15.853Z,100.00
2022-12-16T23:53:00.967Z,100.00
2022-12-16T23:55:45.924Z,100.00
2022-12-16T23:58:30.709Z,100.00
